Columbia Falls, MT (59912)

1:28 AM MDT on August 28, 2014 (GMT -0600)
Tamarack Lane | Change Station
CLOSE
Current Station
Personal Weather Station
Location: Columbia Falls, Mt
Elevation: 3133 ft
Nearby Weather Stations

Elev 3133 ft 48.38 °N, 114.19 °W | Updated 18 minutes ago

Clear
Clear
55.3 °F
Feels Like 55.3 °F
N
0.0
Wind Variable Wind from NE
Gusts 0.0 mph

Today
High -- | Low -- °F
--% Chance of Precip.
Yesterday
High -- | Low -- °F
Precip. -- in
6:48 AM 8:26 PM
Waxing Crescent, 7% visible
Pressure 29.88 in
Visibility 10.0 miles
Clouds Clear
Dew Point 47 °F
Humidity 74%
Rainfall 0.00 in
Snow Depth Not available.
UV 0 out of 12
Pollen 3.80 out of 12
Air Quality Not available.
Flu Activity Not available.
METAR KCTB 280656Z AUTO 25011KT 10SM CLR 16/08 A2998 RMK AO2 SLP119 T01610078 402940100

More Conditions Fewer Conditions

Pressure 29.88 in
Visibility 10.0 miles
Clouds Clear
Dew Point 47 °F
Humidity 74%
Rainfall 0.00 in
Snow Depth Not available.
UV 0 out of 12
Pollen 3.80 out of 12
Air Quality Not available.
Flu Activity Not available.
METAR KCTB 280656Z AUTO 25011KT 10SM CLR 16/08 A2998 RMK AO2 SLP119 T01610078 402940100

More Conditions Fewer Conditions

10-Day Weather Forecast

Almanac

Astronomy

Aug. 28, 2014 Rise Set
Actual Time 6:48 AM MDT 8:26 PM MDT
Civil Twilight 6:15 AM MDT 8:58 PM MDT
Nautical Twilight 5:35 AM MDT 9:38 PM MDT
Astronomical Twilight 4:51 AM MDT 10:22 PM MDT
Moon 10:02 AM MDT 9:33 PM MDT
Length of Visible Light 14h 42m
Length of Day
13h 37m
Tomorrow will be 3m 23s shorter.
Waxing Crescent, 7% of the Moon is Illuminated
Today
Waxing Crescent
Sep 2
First Quarter
Sep 8
Full
Sep 15
Last Quarter
Sep 24
New

Today's Extremes

State Highs State Lows

Community

WunderPhotos

Upload Photos

1,747,912 photos uploaded!

Nearby

Snow Depth

Station Depth Elevation
Emery Creek 0 in 4350 ft
Stahl Peak 0 in 6030 ft
Badger Pass 0 in 6900 ft
Kraft Creek 0 in 4750 ft
Dupuyer Creek 0 in 5750 ft

Earthquake Activity

City Distance Mag. Time & Date
No recent earthquake activity has been reported nearby.
Minimum magnitude displayed is 2.5.

Coastal Water Temperatures

Place Temperature
No Stations Reporting

Nearby Weather Stations